sensor_id;sensor_type;location;lat;lon;timestamp;P1;durP1;ratioP1;P2;durP2;ratioP2
12356;SDS011;6243;51.244;6.774;2024-02-14T00:00:51;3.53;;;2.70;;
12356;SDS011;6243;51.244;6.774;2024-02-14T00:03:17;4.10;;;3.03;;
12356;SDS011;6243;51.244;6.774;2024-02-14T00:05:42;4.43;;;2.97;;
12356;SDS011;6243;51.244;6.774;2024-02-14T00:08:08;4.60;;;3.20;;
12356;SDS011;6243;51.244;6.774;2024-02-14T00:10:33;3.03;;;2.70;;
12356;SDS011;6243;51.244;6.774;2024-02-14T00:12:59;2.60;;;2.40;;
12356;SDS011;6243;51.244;6.774;2024-02-14T00:15:24;6.07;;;2.70;;
12356;SDS011;6243;51.244;6.774;2024-02-14T00:17:51;3.67;;;2.90;;
12356;SDS011;6243;51.244;6.774;2024-02-14T00:20:17;6.53;;;2.70;;
12356;SDS011;6243;51.244;6.774;2024-02-14T00:22:42;5.43;;;2.70;;
12356;SDS011;6243;51.244;6.774;2024-02-14T00:25:08;6.10;;;3.10;;
12356;SDS011;6243;51.244;6.774;2024-02-14T00:27:33;3.73;;;2.97;;
12356;SDS011;6243;51.244;6.774;2024-02-14T00:29:59;4.10;;;3.10;;
12356;SDS011;6243;51.244;6.774;2024-02-14T00:32:24;3.13;;;2.43;;
12356;SDS011;6243;51.244;6.774;2024-02-14T00:34:51;3.43;;;2.30;;
12356;SDS011;6243;51.244;6.774;2024-02-14T00:37:17;4.33;;;2.40;;
12356;SDS011;6243;51.244;6.774;2024-02-14T00:39:44;4.03;;;2.50;;
12356;SDS011;6243;51.244;6.774;2024-02-14T00:42:09;2.67;;;2.10;;
12356;SDS011;6243;51.244;6.774;2024-02-14T00:44:34;5.53;;;2.23;;
12356;SDS011;6243;51.244;6.774;2024-02-14T00:47:00;2.70;;;2.10;;
12356;SDS011;6243;51.244;6.774;2024-02-14T00:49:25;2.20;;;2.00;;
12356;SDS011;6243;51.244;6.774;2024-02-14T00:51:52;5.03;;;2.20;;
12356;SDS011;6243;51.244;6.774;2024-02-14T00:54:18;4.43;;;2.20;;
12356;SDS011;6243;51.244;6.774;2024-02-14T00:56:43;4.70;;;2.00;;
12356;SDS011;6243;51.244;6.774;2024-02-14T00:59:09;3.67;;;2.00;;
12356;SDS011;6243;51.244;6.774;2024-02-14T01:01:34;3.43;;;1.70;;
12356;SDS011;6243;51.244;6.774;2024-02-14T01:04:00;3.87;;;1.97;;
12356;SDS011;6243;51.244;6.774;2024-02-14T01:06:26;2.50;;;1.80;;
12356;SDS011;6243;51.244;6.774;2024-02-14T01:08:52;3.03;;;2.00;;
12356;SDS011;6243;51.244;6.774;2024-02-14T01:11:18;2.93;;;1.90;;
12356;SDS011;6243;51.244;6.774;2024-02-14T01:13:44;4.23;;;2.30;;
12356;SDS011;6243;51.244;6.774;2024-02-14T01:16:09;3.03;;;1.90;;
12356;SDS011;6243;51.244;6.774;2024-02-14T01:18:35;3.70;;;1.40;;
12356;SDS011;6243;51.244;6.774;2024-02-14T01:21:00;3.23;;;1.87;;
12356;SDS011;6243;51.244;6.774;2024-02-14T01:23:26;3.50;;;1.93;;
12356;SDS011;6243;51.244;6.774;2024-02-14T01:25:54;2.87;;;1.67;;
12356;SDS011;6243;51.244;6.774;2024-02-14T01:28:19;2.03;;;1.70;;
12356;SDS011;6243;51.244;6.774;2024-02-14T01:30:45;3.57;;;2.10;;
12356;SDS011;6243;51.244;6.774;2024-02-14T01:33:10;2.57;;;1.80;;
12356;SDS011;6243;51.244;6.774;2024-02-14T01:35:36;2.43;;;1.70;;
12356;SDS011;6243;51.244;6.774;2024-02-14T01:38:01;2.07;;;1.63;;
12356;SDS011;6243;51.244;6.774;2024-02-14T01:40:27;3.00;;;1.40;;
12356;SDS011;6243;51.244;6.774;2024-02-14T01:42:53;2.63;;;1.40;;
12356;SDS011;6243;51.244;6.774;2024-02-14T01:45:19;2.77;;;1.47;;
12356;SDS011;6243;51.244;6.774;2024-02-14T01:47:44;1.60;;;1.13;;
12356;SDS011;6243;51.244;6.774;2024-02-14T01:50:10;3.20;;;1.13;;
12356;SDS011;6243;51.244;6.774;2024-02-14T01:52:36;2.13;;;1.03;;
12356;SDS011;6243;51.244;6.774;2024-02-14T01:55:02;0.97;;;0.97;;
12356;SDS011;6243;51.244;6.774;2024-02-14T01:57:30;1.13;;;1.03;;
12356;SDS011;6243;51.244;6.774;2024-02-14T01:59:57;1.60;;;1.20;;
12356;SDS011;6243;51.244;6.774;2024-02-14T02:02:25;2.03;;;1.30;;
12356;SDS011;6243;51.244;6.774;2024-02-14T02:04:52;1.53;;;1.20;;
12356;SDS011;6243;51.244;6.774;2024-02-14T02:07:17;3.27;;;1.30;;
12356;SDS011;6243;51.244;6.774;2024-02-14T02:09:43;1.20;;;1.10;;
12356;SDS011;6243;51.244;6.774;2024-02-14T02:12:08;1.40;;;1.23;;
12356;SDS011;6243;51.244;6.774;2024-02-14T02:14:34;1.40;;;1.20;;
12356;SDS011;6243;51.244;6.774;2024-02-14T02:17:01;1.33;;;1.23;;
12356;SDS011;6243;51.244;6.774;2024-02-14T02:19:27;1.20;;;1.10;;
12356;SDS011;6243;51.244;6.774;2024-02-14T02:21:52;2.27;;;1.20;;
12356;SDS011;6243;51.244;6.774;2024-02-14T02:24:19;1.67;;;1.00;;
12356;SDS011;6243;51.244;6.774;2024-02-14T02:26:44;2.37;;;1.10;;
12356;SDS011;6243;51.244;6.774;2024-02-14T02:29:10;2.83;;;1.30;;
12356;SDS011;6243;51.244;6.774;2024-02-14T02:31:35;2.37;;;1.10;;
12356;SDS011;6243;51.244;6.774;2024-02-14T02:34:01;1.97;;;1.33;;
12356;SDS011;6243;51.244;6.774;2024-02-14T02:36:26;1.17;;;1.07;;
12356;SDS011;6243;51.244;6.774;2024-02-14T02:38:52;1.13;;;1.00;;
12356;SDS011;6243;51.244;6.774;2024-02-14T02:41:19;2.03;;;1.40;;
12356;SDS011;6243;51.244;6.774;2024-02-14T02:43:44;2.47;;;1.23;;
12356;SDS011;6243;51.244;6.774;2024-02-14T02:46:10;4.13;;;1.70;;
12356;SDS011;6243;51.244;6.774;2024-02-14T02:48:35;1.63;;;1.23;;
12356;SDS011;6243;51.244;6.774;2024-02-14T02:51:01;2.63;;;1.20;;
12356;SDS011;6243;51.244;6.774;2024-02-14T02:53:27;2.67;;;1.27;;
12356;SDS011;6243;51.244;6.774;2024-02-14T02:55:52;1.27;;;1.17;;
12356;SDS011;6243;51.244;6.774;2024-02-14T02:58:19;1.40;;;1.03;;
12356;SDS011;6243;51.244;6.774;2024-02-14T03:00:44;1.67;;;1.57;;
12356;SDS011;6243;51.244;6.774;2024-02-14T03:03:10;2.67;;;1.30;;
12356;SDS011;6243;51.244;6.774;2024-02-14T03:05:36;3.47;;;1.50;;
12356;SDS011;6243;51.244;6.774;2024-02-14T03:08:01;2.23;;;1.33;;
12356;SDS011;6243;51.244;6.774;2024-02-14T03:10:27;3.13;;;1.70;;
12356;SDS011;6243;51.244;6.774;2024-02-14T03:12:52;2.47;;;1.57;;
12356;SDS011;6243;51.244;6.774;2024-02-14T03:15:19;1.53;;;1.33;;
12356;SDS011;6243;51.244;6.774;2024-02-14T03:17:44;1.93;;;1.60;;
12356;SDS011;6243;51.244;6.774;2024-02-14T03:20:10;1.40;;;1.30;;
12356;SDS011;6243;51.244;6.774;2024-02-14T03:22:36;4.07;;;1.90;;
12356;SDS011;6243;51.244;6.774;2024-02-14T03:25:02;2.77;;;1.70;;
12356;SDS011;6243;51.244;6.774;2024-02-14T03:27:28;2.33;;;1.87;;
12356;SDS011;6243;51.244;6.774;2024-02-14T03:29:53;2.73;;;1.50;;
12356;SDS011;6243;51.244;6.774;2024-02-14T03:32:20;2.57;;;1.77;;
12356;SDS011;6243;51.244;6.774;2024-02-14T03:34:45;2.10;;;1.87;;
12356;SDS011;6243;51.244;6.774;2024-02-14T03:37:11;3.17;;;1.80;;
12356;SDS011;6243;51.244;6.774;2024-02-14T03:39:36;1.77;;;1.67;;
12356;SDS011;6243;51.244;6.774;2024-02-14T03:42:02;3.10;;;1.77;;
12356;SDS011;6243;51.244;6.774;2024-02-14T03:44:28;4.77;;;1.97;;
12356;SDS011;6243;51.244;6.774;2024-02-14T03:46:54;2.53;;;1.97;;
12356;SDS011;6243;51.244;6.774;2024-02-14T03:49:21;2.13;;;1.70;;
12356;SDS011;6243;51.244;6.774;2024-02-14T03:51:46;1.93;;;1.57;;
12356;SDS011;6243;51.244;6.774;2024-02-14T03:54:12;3.20;;;1.87;;
12356;SDS011;6243;51.244;6.774;2024-02-14T03:56:37;3.37;;;1.87;;
12356;SDS011;6243;51.244;6.774;2024-02-14T03:59:03;4.20;;;2.10;;
12356;SDS011;6243;51.244;6.774;2024-02-14T04:01:28;2.47;;;2.10;;
12356;SDS011;6243;51.244;6.774;2024-02-14T04:03:54;3.87;;;1.90;;
12356;SDS011;6243;51.244;6.774;2024-02-14T04:06:21;2.63;;;2.00;;
12356;SDS011;6243;51.244;6.774;2024-02-14T04:08:46;1.73;;;1.37;;
12356;SDS011;6243;51.244;6.774;2024-02-14T04:11:12;1.83;;;1.50;;
12356;SDS011;6243;51.244;6.774;2024-02-14T04:13:37;3.40;;;1.83;;
12356;SDS011;6243;51.244;6.774;2024-02-14T04:16:03;1.53;;;1.43;;
12356;SDS011;6243;51.244;6.774;2024-02-14T04:18:29;1.80;;;1.70;;
12356;SDS011;6243;51.244;6.774;2024-02-14T04:20:54;2.37;;;1.60;;
12356;SDS011;6243;51.244;6.774;2024-02-14T04:23:21;2.57;;;1.83;;
12356;SDS011;6243;51.244;6.774;2024-02-14T04:25:47;2.67;;;1.60;;
12356;SDS011;6243;51.244;6.774;2024-02-14T04:28:12;1.97;;;1.77;;
12356;SDS011;6243;51.244;6.774;2024-02-14T04:30:38;2.47;;;1.87;;
12356;SDS011;6243;51.244;6.774;2024-02-14T04:33:03;2.70;;;1.50;;
12356;SDS011;6243;51.244;6.774;2024-02-14T04:35:29;2.37;;;1.63;;
12356;SDS011;6243;51.244;6.774;2024-02-14T04:37:55;2.97;;;2.00;;
12356;SDS011;6243;51.244;6.774;2024-02-14T04:40:21;1.50;;;1.40;;
12356;SDS011;6243;51.244;6.774;2024-02-14T04:42:47;2.07;;;1.50;;
12356;SDS011;6243;51.244;6.774;2024-02-14T04:45:13;2.00;;;1.80;;
12356;SDS011;6243;51.244;6.774;2024-02-14T04:47:38;2.23;;;1.90;;
12356;SDS011;6243;51.244;6.774;2024-02-14T04:50:04;2.93;;;1.43;;
12356;SDS011;6243;51.244;6.774;2024-02-14T04:52:30;1.93;;;1.67;;
12356;SDS011;6243;51.244;6.774;2024-02-14T04:54:55;2.33;;;1.57;;
12356;SDS011;6243;51.244;6.774;2024-02-14T04:57:22;2.07;;;1.73;;
12356;SDS011;6243;51.244;6.774;2024-02-14T04:59:48;1.80;;;1.70;;
12356;SDS011;6243;51.244;6.774;2024-02-14T05:02:14;4.47;;;1.80;;
12356;SDS011;6243;51.244;6.774;2024-02-14T05:04:39;1.67;;;1.57;;
12356;SDS011;6243;51.244;6.774;2024-02-14T05:07:05;1.57;;;1.40;;
12356;SDS011;6243;51.244;6.774;2024-02-14T05:09:31;2.67;;;1.60;;
12356;SDS011;6243;51.244;6.774;2024-02-14T05:11:57;1.67;;;1.53;;
12356;SDS011;6243;51.244;6.774;2024-02-14T05:14:23;3.40;;;1.80;;
12356;SDS011;6243;51.244;6.774;2024-02-14T05:16:51;1.73;;;1.60;;
12356;SDS011;6243;51.244;6.774;2024-02-14T05:19:17;2.10;;;1.80;;
12356;SDS011;6243;51.244;6.774;2024-02-14T05:21:42;4.27;;;2.20;;
12356;SDS011;6243;51.244;6.774;2024-02-14T05:24:08;3.47;;;1.93;;
12356;SDS011;6243;51.244;6.774;2024-02-14T05:26:33;1.70;;;1.60;;
12356;SDS011;6243;51.244;6.774;2024-02-14T05:28:59;4.00;;;2.10;;
12356;SDS011;6243;51.244;6.774;2024-02-14T05:31:28;3.50;;;2.10;;
12356;SDS011;6243;51.244;6.774;2024-02-14T05:34:07;2.47;;;2.00;;
12356;SDS011;6243;51.244;6.774;2024-02-14T05:36:33;2.50;;;2.10;;
12356;SDS011;6243;51.244;6.774;2024-02-14T05:38:59;3.63;;;2.13;;
12356;SDS011;6243;51.244;6.774;2024-02-14T05:41:24;2.27;;;1.90;;
12356;SDS011;6243;51.244;6.774;2024-02-14T05:43:50;2.90;;;1.87;;
12356;SDS011;6243;51.244;6.774;2024-02-14T05:46:15;2.73;;;2.30;;
12356;SDS011;6243;51.244;6.774;2024-02-14T05:48:42;3.67;;;2.40;;
12356;SDS011;6243;51.244;6.774;2024-02-14T05:51:07;3.17;;;2.23;;
12356;SDS011;6243;51.244;6.774;2024-02-14T05:53:33;5.13;;;2.20;;
12356;SDS011;6243;51.244;6.774;2024-02-14T05:55:58;2.17;;;1.97;;
12356;SDS011;6243;51.244;6.774;2024-02-14T05:58:24;4.90;;;2.40;;
12356;SDS011;6243;51.244;6.774;2024-02-14T06:00:49;3.43;;;2.40;;
12356;SDS011;6243;51.244;6.774;2024-02-14T06:03:15;2.30;;;2.10;;
12356;SDS011;6243;51.244;6.774;2024-02-14T06:05:42;2.63;;;2.30;;
12356;SDS011;6243;51.244;6.774;2024-02-14T06:08:07;2.77;;;2.27;;
12356;SDS011;6243;51.244;6.774;2024-02-14T06:10:33;2.30;;;2.10;;
12356;SDS011;6243;51.244;6.774;2024-02-14T06:12:58;2.50;;;2.30;;
12356;SDS011;6243;51.244;6.774;2024-02-14T06:15:24;2.80;;;2.10;;
12356;SDS011;6243;51.244;6.774;2024-02-14T06:17:49;2.57;;;2.10;;
12356;SDS011;6243;51.244;6.774;2024-02-14T06:20:15;2.57;;;2.17;;
12356;SDS011;6243;51.244;6.774;2024-02-14T06:22:42;4.00;;;2.20;;
12356;SDS011;6243;51.244;6.774;2024-02-14T06:25:07;2.27;;;2.07;;
12356;SDS011;6243;51.244;6.774;2024-02-14T06:27:33;3.30;;;2.50;;
12356;SDS011;6243;51.244;6.774;2024-02-14T06:29:58;3.50;;;2.17;;
12356;SDS011;6243;51.244;6.774;2024-02-14T06:32:24;2.40;;;2.17;;
12356;SDS011;6243;51.244;6.774;2024-02-14T06:34:49;2.67;;;2.47;;
12356;SDS011;6243;51.244;6.774;2024-02-14T06:37:15;3.40;;;2.47;;
12356;SDS011;6243;51.244;6.774;2024-02-14T06:39:42;3.07;;;2.23;;
12356;SDS011;6243;51.244;6.774;2024-02-14T06:42:07;2.90;;;2.40;;
12356;SDS011;6243;51.244;6.774;2024-02-14T06:44:33;2.43;;;2.20;;
12356;SDS011;6243;51.244;6.774;2024-02-14T06:46:58;4.53;;;2.57;;
12356;SDS011;6243;51.244;6.774;2024-02-14T06:49:24;3.07;;;2.00;;
12356;SDS011;6243;51.244;6.774;2024-02-14T06:51:49;2.53;;;2.10;;
12356;SDS011;6243;51.244;6.774;2024-02-14T06:54:15;2.60;;;2.40;;
12356;SDS011;6243;51.244;6.774;2024-02-14T06:56:42;3.90;;;2.30;;
12356;SDS011;6243;51.244;6.774;2024-02-14T06:59:07;3.40;;;2.40;;
12356;SDS011;6243;51.244;6.774;2024-02-14T07:01:33;3.60;;;2.37;;
12356;SDS011;6243;51.244;6.774;2024-02-14T07:03:58;3.80;;;1.90;;
12356;SDS011;6243;51.244;6.774;2024-02-14T07:06:24;3.30;;;2.50;;
12356;SDS011;6243;51.244;6.774;2024-02-14T07:08:49;4.87;;;2.70;;
12356;SDS011;6243;51.244;6.774;2024-02-14T07:11:16;3.30;;;2.40;;
12356;SDS011;6243;51.244;6.774;2024-02-14T07:13:43;2.33;;;2.13;;
12356;SDS011;6243;51.244;6.774;2024-02-14T07:16:09;3.13;;;2.13;;
12356;SDS011;6243;51.244;6.774;2024-02-14T07:18:35;5.43;;;2.33;;
12356;SDS011;6243;51.244;6.774;2024-02-14T07:21:00;3.93;;;2.53;;
12356;SDS011;6243;51.244;6.774;2024-02-14T07:23:26;3.67;;;2.40;;
12356;SDS011;6243;51.244;6.774;2024-02-14T07:25:52;2.90;;;2.03;;
12356;SDS011;6243;51.244;6.774;2024-02-14T07:28:17;3.17;;;2.27;;
12356;SDS011;6243;51.244;6.774;2024-02-14T07:30:44;3.87;;;2.00;;
12356;SDS011;6243;51.244;6.774;2024-02-14T07:33:10;3.30;;;2.30;;
12356;SDS011;6243;51.244;6.774;2024-02-14T07:35:36;4.07;;;2.20;;
12356;SDS011;6243;51.244;6.774;2024-02-14T07:38:01;4.43;;;2.40;;
12356;SDS011;6243;51.244;6.774;2024-02-14T07:40:27;4.90;;;2.43;;
12356;SDS011;6243;51.244;6.774;2024-02-14T07:42:52;3.47;;;2.30;;
12356;SDS011;6243;51.244;6.774;2024-02-14T07:45:18;3.67;;;2.37;;
12356;SDS011;6243;51.244;6.774;2024-02-14T07:47:45;2.77;;;2.37;;
12356;SDS011;6243;51.244;6.774;2024-02-14T07:50:10;2.80;;;1.97;;
12356;SDS011;6243;51.244;6.774;2024-02-14T07:52:36;3.97;;;2.30;;
12356;SDS011;6243;51.244;6.774;2024-02-14T07:55:01;2.70;;;2.20;;
12356;SDS011;6243;51.244;6.774;2024-02-14T07:57:27;2.43;;;2.23;;
12356;SDS011;6243;51.244;6.774;2024-02-14T07:59:52;1.70;;;1.57;;
12356;SDS011;6243;51.244;6.774;2024-02-14T08:02:18;4.80;;;2.13;;
12356;SDS011;6243;51.244;6.774;2024-02-14T08:04:46;4.23;;;2.33;;
12356;SDS011;6243;51.244;6.774;2024-02-14T08:07:11;4.60;;;2.20;;
12356;SDS011;6243;51.244;6.774;2024-02-14T08:09:37;2.37;;;1.87;;
12356;SDS011;6243;51.244;6.774;2024-02-14T08:12:02;5.53;;;2.33;;
12356;SDS011;6243;51.244;6.774;2024-02-14T08:14:28;2.23;;;2.00;;
12356;SDS011;6243;51.244;6.774;2024-02-14T08:16:54;2.33;;;2.13;;
12356;SDS011;6243;51.244;6.774;2024-02-14T08:19:19;3.23;;;1.73;;
12356;SDS011;6243;51.244;6.774;2024-02-14T08:21:46;3.90;;;2.20;;
12356;SDS011;6243;51.244;6.774;2024-02-14T08:24:12;2.27;;;2.00;;
12356;SDS011;6243;51.244;6.774;2024-02-14T08:26:37;3.23;;;2.30;;
12356;SDS011;6243;51.244;6.774;2024-02-14T08:29:03;4.63;;;2.53;;
12356;SDS011;6243;51.244;6.774;2024-02-14T08:31:28;2.23;;;1.90;;
12356;SDS011;6243;51.244;6.774;2024-02-14T08:33:54;3.00;;;2.00;;
12356;SDS011;6243;51.244;6.774;2024-02-14T08:36:20;3.90;;;2.00;;
12356;SDS011;6243;51.244;6.774;2024-02-14T08:38:47;5.03;;;2.07;;
12356;SDS011;6243;51.244;6.774;2024-02-14T08:41:12;3.63;;;2.30;;
12356;SDS011;6243;51.244;6.774;2024-02-14T08:43:38;4.90;;;2.17;;
12356;SDS011;6243;51.244;6.774;2024-02-14T08:46:03;4.37;;;2.10;;
12356;SDS011;6243;51.244;6.774;2024-02-14T08:48:34;5.23;;;1.83;;
12356;SDS011;6243;51.244;6.774;2024-02-14T08:51:00;3.77;;;2.17;;
12356;SDS011;6243;51.244;6.774;2024-02-14T08:53:25;2.53;;;1.97;;
12356;SDS011;6243;51.244;6.774;2024-02-14T08:55:52;2.70;;;2.00;;
12356;SDS011;6243;51.244;6.774;2024-02-14T08:58:18;3.87;;;1.80;;
12356;SDS011;6243;51.244;6.774;2024-02-14T09:00:44;3.50;;;1.73;;
12356;SDS011;6243;51.244;6.774;2024-02-14T09:03:10;4.90;;;1.80;;
12356;SDS011;6243;51.244;6.774;2024-02-14T09:05:36;4.13;;;2.10;;
12356;SDS011;6243;51.244;6.774;2024-02-14T09:08:01;4.57;;;2.17;;
12356;SDS011;6243;51.244;6.774;2024-02-14T09:10:27;1.97;;;1.63;;
12356;SDS011;6243;51.244;6.774;2024-02-14T09:12:54;2.53;;;1.73;;
12356;SDS011;6243;51.244;6.774;2024-02-14T09:15:19;6.93;;;2.20;;
12356;SDS011;6243;51.244;6.774;2024-02-14T09:17:45;4.40;;;2.20;;
12356;SDS011;6243;51.244;6.774;2024-02-14T09:20:11;7.27;;;2.30;;
12356;SDS011;6243;51.244;6.774;2024-02-14T09:22:36;4.13;;;1.67;;
12356;SDS011;6243;51.244;6.774;2024-02-14T09:25:02;3.07;;;1.67;;
12356;SDS011;6243;51.244;6.774;2024-02-14T09:27:28;3.50;;;1.83;;
12356;SDS011;6243;51.244;6.774;2024-02-14T09:29:55;5.53;;;2.17;;
12356;SDS011;6243;51.244;6.774;2024-02-14T09:32:20;5.33;;;1.83;;
12356;SDS011;6243;51.244;6.774;2024-02-14T09:34:46;4.77;;;2.17;;
12356;SDS011;6243;51.244;6.774;2024-02-14T09:37:11;2.23;;;1.70;;
12356;SDS011;6243;51.244;6.774;2024-02-14T09:39:37;2.93;;;1.67;;
12356;SDS011;6243;51.244;6.774;2024-02-14T09:42:03;3.80;;;1.77;;
12356;SDS011;6243;51.244;6.774;2024-02-14T09:44:33;4.30;;;1.73;;
12356;SDS011;6243;51.244;6.774;2024-02-14T09:47:01;3.70;;;1.63;;
12356;SDS011;6243;51.244;6.774;2024-02-14T09:49:28;3.33;;;1.40;;
12356;SDS011;6243;51.244;6.774;2024-02-14T09:51:54;4.03;;;1.67;;
12356;SDS011;6243;51.244;6.774;2024-02-14T09:54:21;7.60;;;2.17;;
12356;SDS011;6243;51.244;6.774;2024-02-14T09:56:48;2.57;;;1.77;;
12356;SDS011;6243;51.244;6.774;2024-02-14T09:59:14;4.47;;;1.57;;
12356;SDS011;6243;51.244;6.774;2024-02-14T10:01:40;5.37;;;1.53;;
12356;SDS011;6243;51.244;6.774;2024-02-14T10:04:07;6.90;;;2.03;;
12356;SDS011;6243;51.244;6.774;2024-02-14T10:06:33;5.93;;;1.80;;
12356;SDS011;6243;51.244;6.774;2024-02-14T10:08:58;3.40;;;1.60;;
12356;SDS011;6243;51.244;6.774;2024-02-14T10:11:24;4.27;;;2.00;;
12356;SDS011;6243;51.244;6.774;2024-02-14T10:13:49;3.80;;;1.80;;
12356;SDS011;6243;51.244;6.774;2024-02-14T10:16:15;3.83;;;1.70;;
12356;SDS011;6243;51.244;6.774;2024-02-14T10:18:41;5.57;;;1.80;;
12356;SDS011;6243;51.244;6.774;2024-02-14T10:21:13;3.53;;;1.80;;
12356;SDS011;6243;51.244;6.774;2024-02-14T10:23:39;3.33;;;1.33;;
12356;SDS011;6243;51.244;6.774;2024-02-14T10:26:05;5.13;;;1.83;;
12356;SDS011;6243;51.244;6.774;2024-02-14T10:28:31;3.20;;;1.37;;
12356;SDS011;6243;51.244;6.774;2024-02-14T10:30:58;2.63;;;1.43;;
12356;SDS011;6243;51.244;6.774;2024-02-14T10:33:23;3.17;;;1.60;;
12356;SDS011;6243;51.244;6.774;2024-02-14T10:35:49;3.50;;;1.50;;
12356;SDS011;6243;51.244;6.774;2024-02-14T10:38:18;3.00;;;1.37;;
12356;SDS011;6243;51.244;6.774;2024-02-14T10:40:46;3.60;;;1.07;;
12356;SDS011;6243;51.244;6.774;2024-02-14T10:43:12;2.37;;;1.23;;
12356;SDS011;6243;51.244;6.774;2024-02-14T10:45:38;4.33;;;1.50;;
12356;SDS011;6243;51.244;6.774;2024-02-14T10:48:04;3.43;;;1.57;;
12356;SDS011;6243;51.244;6.774;2024-02-14T10:50:29;4.90;;;1.70;;
12356;SDS011;6243;51.244;6.774;2024-02-14T10:52:58;1.70;;;1.47;;
12356;SDS011;6243;51.244;6.774;2024-02-14T10:55:30;2.90;;;1.30;;
12356;SDS011;6243;51.244;6.774;2024-02-14T10:57:56;3.40;;;1.80;;
12356;SDS011;6243;51.244;6.774;2024-02-14T11:00:22;2.10;;;1.33;;
12356;SDS011;6243;51.244;6.774;2024-02-14T11:16:12;3.63;;;1.17;;
12356;SDS011;6243;51.244;6.774;2024-02-14T11:18:38;2.37;;;1.30;;
12356;SDS011;6243;51.244;6.774;2024-02-14T11:21:04;3.37;;;1.30;;
12356;SDS011;6243;51.244;6.774;2024-02-14T11:23:30;2.40;;;1.20;;
12356;SDS011;6243;51.244;6.774;2024-02-14T11:25:59;1.37;;;1.00;;
12356;SDS011;6243;51.244;6.774;2024-02-14T11:28:25;2.10;;;1.00;;
12356;SDS011;6243;51.244;6.774;2024-02-14T11:30:51;2.30;;;1.07;;
12356;SDS011;6243;51.244;6.774;2024-02-14T11:33:18;3.33;;;1.40;;
12356;SDS011;6243;51.244;6.774;2024-02-14T11:35:45;1.23;;;0.90;;
12356;SDS011;6243;51.244;6.774;2024-02-14T11:38:12;2.30;;;1.10;;
12356;SDS011;6243;51.244;6.774;2024-02-14T11:40:38;1.23;;;1.00;;
12356;SDS011;6243;51.244;6.774;2024-02-14T11:43:03;3.10;;;1.20;;
12356;SDS011;6243;51.244;6.774;2024-02-14T11:45:29;3.50;;;1.20;;
12356;SDS011;6243;51.244;6.774;2024-02-14T11:47:55;2.33;;;1.03;;
12356;SDS011;6243;51.244;6.774;2024-02-14T11:50:22;1.70;;;0.93;;
12356;SDS011;6243;51.244;6.774;2024-02-14T11:52:47;1.67;;;0.93;;
12356;SDS011;6243;51.244;6.774;2024-02-14T11:55:13;2.60;;;1.00;;
12356;SDS011;6243;51.244;6.774;2024-02-14T11:57:42;2.30;;;1.13;;
12356;SDS011;6243;51.244;6.774;2024-02-14T12:00:08;4.67;;;1.20;;
12356;SDS011;6243;51.244;6.774;2024-02-14T12:02:34;1.87;;;1.20;;
12356;SDS011;6243;51.244;6.774;2024-02-14T12:05:00;2.00;;;1.27;;
12356;SDS011;6243;51.244;6.774;2024-02-14T12:07:27;1.37;;;0.90;;
12356;SDS011;6243;51.244;6.774;2024-02-14T12:09:54;2.13;;;1.07;;
12356;SDS011;6243;51.244;6.774;2024-02-14T12:12:20;3.20;;;1.20;;
12356;SDS011;6243;51.244;6.774;2024-02-14T12:14:46;1.83;;;1.10;;
12356;SDS011;6243;51.244;6.774;2024-02-14T12:17:11;1.93;;;1.20;;
12356;SDS011;6243;51.244;6.774;2024-02-14T12:19:37;4.83;;;1.20;;
12356;SDS011;6243;51.244;6.774;2024-02-14T12:22:02;1.83;;;0.97;;
12356;SDS011;6243;51.244;6.774;2024-02-14T12:24:35;2.10;;;1.30;;
12356;SDS011;6243;51.244;6.774;2024-02-14T12:27:00;3.33;;;1.40;;
12356;SDS011;6243;51.244;6.774;2024-02-14T12:29:26;2.27;;;1.30;;
12356;SDS011;6243;51.244;6.774;2024-02-14T12:31:51;2.47;;;1.50;;
12356;SDS011;6243;51.244;6.774;2024-02-14T12:34:17;2.80;;;1.40;;
12356;SDS011;6243;51.244;6.774;2024-02-14T12:36:42;2.80;;;1.57;;
12356;SDS011;6243;51.244;6.774;2024-02-14T12:39:08;7.67;;;1.83;;
12356;SDS011;6243;51.244;6.774;2024-02-14T12:41:35;4.97;;;1.90;;
12356;SDS011;6243;51.244;6.774;2024-02-14T12:44:01;3.20;;;1.63;;
12356;SDS011;6243;51.244;6.774;2024-02-14T12:46:26;2.07;;;1.40;;
12356;SDS011;6243;51.244;6.774;2024-02-14T12:48:52;2.90;;;1.70;;
12356;SDS011;6243;51.244;6.774;2024-02-14T12:51:18;3.73;;;1.93;;
12356;SDS011;6243;51.244;6.774;2024-02-14T12:53:43;4.97;;;1.70;;
12356;SDS011;6243;51.244;6.774;2024-02-14T12:56:09;4.53;;;1.63;;
12356;SDS011;6243;51.244;6.774;2024-02-14T12:58:36;4.67;;;1.73;;
12356;SDS011;6243;51.244;6.774;2024-02-14T13:01:01;3.70;;;1.60;;
12356;SDS011;6243;51.244;6.774;2024-02-14T13:03:27;2.70;;;1.30;;
12356;SDS011;6243;51.244;6.774;2024-02-14T13:05:53;6.93;;;1.90;;
12356;SDS011;6243;51.244;6.774;2024-02-14T13:08:19;2.10;;;1.20;;
12356;SDS011;6243;51.244;6.774;2024-02-14T13:10:44;1.73;;;1.17;;
12356;SDS011;6243;51.244;6.774;2024-02-14T13:13:10;4.37;;;1.90;;
12356;SDS011;6243;51.244;6.774;2024-02-14T13:15:37;4.20;;;1.40;;
12356;SDS011;6243;51.244;6.774;2024-02-14T13:18:02;5.03;;;1.63;;
12356;SDS011;6243;51.244;6.774;2024-02-14T13:20:28;3.83;;;1.60;;
12356;SDS011;6243;51.244;6.774;2024-02-14T13:22:54;3.10;;;1.40;;
12356;SDS011;6243;51.244;6.774;2024-02-14T13:25:20;2.73;;;1.43;;
12356;SDS011;6243;51.244;6.774;2024-02-14T13:27:45;4.07;;;1.60;;
12356;SDS011;6243;51.244;6.774;2024-02-14T13:30:11;2.17;;;1.20;;
12356;SDS011;6243;51.244;6.774;2024-02-14T13:32:38;5.00;;;1.20;;
12356;SDS011;6243;51.244;6.774;2024-02-14T13:35:04;2.67;;;1.30;;
12356;SDS011;6243;51.244;6.774;2024-02-14T13:37:30;2.60;;;1.20;;
12356;SDS011;6243;51.244;6.774;2024-02-14T13:39:56;2.30;;;1.40;;
12356;SDS011;6243;51.244;6.774;2024-02-14T13:42:22;3.27;;;1.50;;
12356;SDS011;6243;51.244;6.774;2024-02-14T13:44:47;1.50;;;1.17;;
12356;SDS011;6243;51.244;6.774;2024-02-14T13:47:13;1.17;;;1.00;;
12356;SDS011;6243;51.244;6.774;2024-02-14T13:49:44;2.13;;;0.90;;
12356;SDS011;6243;51.244;6.774;2024-02-14T13:52:09;1.87;;;0.80;;
12356;SDS011;6243;51.244;6.774;2024-02-14T13:54:35;0.80;;;0.80;;
12356;SDS011;6243;51.244;6.774;2024-02-14T13:57:00;0.80;;;0.80;;
12356;SDS011;6243;51.244;6.774;2024-02-14T13:59:26;1.70;;;0.60;;
12356;SDS011;6243;51.244;6.774;2024-02-14T14:01:51;1.00;;;0.60;;
12356;SDS011;6243;51.244;6.774;2024-02-14T14:04:17;0.63;;;0.60;;
12356;SDS011;6243;51.244;6.774;2024-02-14T14:06:43;0.40;;;0.40;;
12356;SDS011;6243;51.244;6.774;2024-02-14T14:09:09;1.57;;;0.37;;
12356;SDS011;6243;51.244;6.774;2024-02-14T14:11:34;0.57;;;0.40;;
12356;SDS011;6243;51.244;6.774;2024-02-14T14:14:00;0.70;;;0.70;;
12356;SDS011;6243;51.244;6.774;2024-02-14T14:16:26;0.50;;;0.50;;
12356;SDS011;6243;51.244;6.774;2024-02-14T14:18:51;0.50;;;0.50;;
12356;SDS011;6243;51.244;6.774;2024-02-14T14:21:17;0.63;;;0.40;;
12356;SDS011;6243;51.244;6.774;2024-02-14T14:23:44;0.50;;;0.30;;
12356;SDS011;6243;51.244;6.774;2024-02-14T14:26:09;0.70;;;0.53;;
12356;SDS011;6243;51.244;6.774;2024-02-14T14:28:35;0.50;;;0.50;;
12356;SDS011;6243;51.244;6.774;2024-02-14T14:31:00;1.47;;;0.47;;
12356;SDS011;6243;51.244;6.774;2024-02-14T14:33:26;0.40;;;0.40;;
12356;SDS011;6243;51.244;6.774;2024-02-14T14:35:51;0.30;;;0.30;;
12356;SDS011;6243;51.244;6.774;2024-02-14T14:38:17;0.70;;;0.53;;
12356;SDS011;6243;51.244;6.774;2024-02-14T14:40:44;0.60;;;0.60;;
12356;SDS011;6243;51.244;6.774;2024-02-14T14:43:09;0.60;;;0.40;;
12356;SDS011;6243;51.244;6.774;2024-02-14T14:45:35;0.50;;;0.50;;
12356;SDS011;6243;51.244;6.774;2024-02-14T14:48:00;1.37;;;0.70;;
12356;SDS011;6243;51.244;6.774;2024-02-14T14:50:26;0.93;;;0.73;;
12356;SDS011;6243;51.244;6.774;2024-02-14T14:52:51;1.67;;;1.00;;
12356;SDS011;6243;51.244;6.774;2024-02-14T14:55:17;1.60;;;0.80;;
12356;SDS011;6243;51.244;6.774;2024-02-14T14:57:44;2.13;;;1.50;;
12356;SDS011;6243;51.244;6.774;2024-02-14T15:00:10;1.73;;;1.00;;
12356;SDS011;6243;51.244;6.774;2024-02-14T15:02:37;1.60;;;0.90;;
12356;SDS011;6243;51.244;6.774;2024-02-14T15:05:04;1.50;;;1.20;;